sensor_id;sensor_type;location;lat;lon;timestamp;pressure;altitude;pressure_sealevel;temperature;humidity
10852;BME280;5479;52.046;6.314;2023-04-07T00:01:20;101303.25;;;7.93;100.00
10852;BME280;5479;52.046;6.314;2023-04-07T00:03:49;101305.56;;;8.00;100.00
10852;BME280;5479;52.046;6.314;2023-04-07T00:06:18;101310.59;;;8.06;100.00
10852;BME280;5479;52.046;6.314;2023-04-07T00:08:46;101311.28;;;8.11;100.00
10852;BME280;5479;52.046;6.314;2023-04-07T00:11:14;101311.53;;;8.05;100.00
10852;BME280;5479;52.046;6.314;2023-04-07T00:13:41;101306.78;;;8.13;100.00
10852;BME280;5479;52.046;6.314;2023-04-07T00:16:09;101309.84;;;8.24;100.00
10852;BME280;5479;52.046;6.314;2023-04-07T00:18:37;101305.69;;;8.19;100.00
10852;BME280;5479;52.046;6.314;2023-04-07T00:21:05;101305.75;;;8.17;100.00
10852;BME280;5479;52.046;6.314;2023-04-07T00:23:34;101305.09;;;8.12;100.00
10852;BME280;5479;52.046;6.314;2023-04-07T00:26:02;101301.13;;;8.22;100.00
10852;BME280;5479;52.046;6.314;2023-04-07T00:28:30;101309.63;;;8.09;100.00
10852;BME280;5479;52.046;6.314;2023-04-07T00:30:58;101298.88;;;8.13;100.00
10852;BME280;5479;52.046;6.314;2023-04-07T00:33:26;101311.47;;;8.07;100.00
10852;BME280;5479;52.046;6.314;2023-04-07T00:35:54;101304.16;;;8.13;100.00
10852;BME280;5479;52.046;6.314;2023-04-07T00:38:23;101305.81;;;8.16;100.00
10852;BME280;5479;52.046;6.314;2023-04-07T00:40:57;101294.88;;;8.25;100.00
10852;BME280;5479;52.046;6.314;2023-04-07T00:43:25;101306.19;;;8.28;100.00
10852;BME280;5479;52.046;6.314;2023-04-07T00:45:53;101303.31;;;8.34;100.00
10852;BME280;5479;52.046;6.314;2023-04-07T00:48:22;101303.16;;;8.37;100.00
10852;BME280;5479;52.046;6.314;2023-04-07T00:50:50;101303.97;;;8.39;100.00
10852;BME280;5479;52.046;6.314;2023-04-07T00:53:18;101310.03;;;8.41;100.00
10852;BME280;5479;52.046;6.314;2023-04-07T00:55:46;101302.00;;;8.44;100.00
10852;BME280;5479;52.046;6.314;2023-04-07T00:58:16;101304.75;;;8.41;100.00
10852;BME280;5479;52.046;6.314;2023-04-07T01:00:48;101302.91;;;8.43;100.00
10852;BME280;5479;52.046;6.314;2023-04-07T01:03:19;101307.41;;;8.41;100.00
10852;BME280;5479;52.046;6.314;2023-04-07T01:05:53;101301.13;;;8.44;100.00
10852;BME280;5479;52.046;6.314;2023-04-07T01:08:26;101300.28;;;8.43;100.00
10852;BME280;5479;52.046;6.314;2023-04-07T01:11:01;101302.25;;;8.38;100.00
10852;BME280;5479;52.046;6.314;2023-04-07T01:13:36;101303.38;;;8.33;100.00
10852;BME280;5479;52.046;6.314;2023-04-07T01:16:10;101309.38;;;8.36;100.00
10852;BME280;5479;52.046;6.314;2023-04-07T01:18:39;101306.38;;;8.24;100.00
10852;BME280;5479;52.046;6.314;2023-04-07T01:21:10;101306.19;;;8.28;100.00
10852;BME280;5479;52.046;6.314;2023-04-07T01:23:50;101309.50;;;8.33;100.00
10852;BME280;5479;52.046;6.314;2023-04-07T01:26:20;101296.84;;;8.41;100.00
10852;BME280;5479;52.046;6.314;2023-04-07T01:29:26;101300.00;;;8.49;100.00
10852;BME280;5479;52.046;6.314;2023-04-07T01:31:58;101309.84;;;8.46;100.00
10852;BME280;5479;52.046;6.314;2023-04-07T01:34:29;101311.56;;;8.47;100.00
10852;BME280;5479;52.046;6.314;2023-04-07T01:37:00;101305.53;;;8.43;100.00
10852;BME280;5479;52.046;6.314;2023-04-07T01:39:29;101307.41;;;8.41;100.00
10852;BME280;5479;52.046;6.314;2023-04-07T01:41:58;101309.13;;;8.42;100.00
10852;BME280;5479;52.046;6.314;2023-04-07T01:44:30;101305.66;;;8.40;100.00
10852;BME280;5479;52.046;6.314;2023-04-07T01:46:59;101316.97;;;8.44;100.00
10852;BME280;5479;52.046;6.314;2023-04-07T01:49:29;101305.16;;;8.53;100.00
10852;BME280;5479;52.046;6.314;2023-04-07T01:51:58;101314.91;;;8.30;100.00
10852;BME280;5479;52.046;6.314;2023-04-07T01:54:27;101310.50;;;8.31;100.00
10852;BME280;5479;52.046;6.314;2023-04-07T01:56:55;101314.53;;;8.39;100.00
10852;BME280;5479;52.046;6.314;2023-04-07T01:59:23;101315.19;;;8.44;100.00
10852;BME280;5479;52.046;6.314;2023-04-07T02:01:53;101309.84;;;8.46;100.00
10852;BME280;5479;52.046;6.314;2023-04-07T02:04:27;101309.78;;;8.47;100.00
10852;BME280;5479;52.046;6.314;2023-04-07T02:06:59;101314.13;;;8.48;100.00
10852;BME280;5479;52.046;6.314;2023-04-07T02:09:30;101310.69;;;8.46;100.00
10852;BME280;5479;52.046;6.314;2023-04-07T02:11:59;101315.97;;;8.46;100.00
10852;BME280;5479;52.046;6.314;2023-04-07T02:14:28;101312.84;;;8.59;100.00
10852;BME280;5479;52.046;6.314;2023-04-07T02:16:58;101311.63;;;8.66;100.00
10852;BME280;5479;52.046;6.314;2023-04-07T02:19:28;101313.13;;;8.51;100.00
10852;BME280;5479;52.046;6.314;2023-04-07T02:21:57;101320.41;;;8.46;100.00
10852;BME280;5479;52.046;6.314;2023-04-07T02:24:26;101320.66;;;8.40;100.00
10852;BME280;5479;52.046;6.314;2023-04-07T02:26:54;101320.72;;;8.38;100.00
10852;BME280;5479;52.046;6.314;2023-04-07T02:29:23;101309.59;;;8.52;100.00
10852;BME280;5479;52.046;6.314;2023-04-07T02:31:51;101314.22;;;8.47;100.00
10852;BME280;5479;52.046;6.314;2023-04-07T02:34:20;101321.50;;;8.40;100.00
10852;BME280;5479;52.046;6.314;2023-04-07T02:36:49;101323.47;;;8.35;100.00
10852;BME280;5479;52.046;6.314;2023-04-07T02:39:17;101319.94;;;8.36;100.00
10852;BME280;5479;52.046;6.314;2023-04-07T02:41:45;101312.06;;;8.35;100.00
10852;BME280;5479;52.046;6.314;2023-04-07T02:44:12;101322.56;;;8.36;100.00
10852;BME280;5479;52.046;6.314;2023-04-07T02:46:41;101319.97;;;8.35;100.00
10852;BME280;5479;52.046;6.314;2023-04-07T02:49:08;101322.25;;;8.22;100.00
10852;BME280;5479;52.046;6.314;2023-04-07T02:51:38;101335.41;;;8.24;100.00
10852;BME280;5479;52.046;6.314;2023-04-07T02:54:06;101328.22;;;8.27;100.00
10852;BME280;5479;52.046;6.314;2023-04-07T02:56:33;101336.22;;;8.24;100.00
10852;BME280;5479;52.046;6.314;2023-04-07T02:59:01;101329.13;;;8.26;100.00
10852;BME280;5479;52.046;6.314;2023-04-07T03:01:29;101331.94;;;8.22;100.00
10852;BME280;5479;52.046;6.314;2023-04-07T03:03:57;101337.75;;;8.31;100.00
10852;BME280;5479;52.046;6.314;2023-04-07T03:06:25;101339.69;;;8.26;100.00
10852;BME280;5479;52.046;6.314;2023-04-07T03:08:55;101333.38;;;8.30;100.00
10852;BME280;5479;52.046;6.314;2023-04-07T03:11:23;101336.00;;;8.30;100.00
10852;BME280;5479;52.046;6.314;2023-04-07T03:13:50;101338.19;;;8.19;100.00
10852;BME280;5479;52.046;6.314;2023-04-07T03:16:18;101336.75;;;8.12;100.00
10852;BME280;5479;52.046;6.314;2023-04-07T03:18:46;101340.97;;;8.16;100.00
10852;BME280;5479;52.046;6.314;2023-04-07T03:21:14;101334.88;;;8.14;100.00
10852;BME280;5479;52.046;6.314;2023-04-07T03:23:42;101341.16;;;8.12;100.00
10852;BME280;5479;52.046;6.314;2023-04-07T03:26:12;101349.06;;;8.12;100.00
10852;BME280;5479;52.046;6.314;2023-04-07T03:28:40;101347.22;;;8.14;100.00
10852;BME280;5479;52.046;6.314;2023-04-07T03:31:07;101347.84;;;8.20;100.00
10852;BME280;5479;52.046;6.314;2023-04-07T03:33:35;101336.88;;;8.09;100.00
10852;BME280;5479;52.046;6.314;2023-04-07T03:36:04;101335.00;;;8.11;100.00
10852;BME280;5479;52.046;6.314;2023-04-07T03:38:32;101337.22;;;8.22;100.00
10852;BME280;5479;52.046;6.314;2023-04-07T03:41:00;101330.13;;;8.24;100.00
10852;BME280;5479;52.046;6.314;2023-04-07T03:43:29;101331.47;;;8.12;100.00
10852;BME280;5479;52.046;6.314;2023-04-07T03:45:57;101326.06;;;8.15;100.00
10852;BME280;5479;52.046;6.314;2023-04-07T03:48:25;101338.44;;;8.13;100.00
10852;BME280;5479;52.046;6.314;2023-04-07T03:50:53;101347.06;;;8.18;100.00
10852;BME280;5479;52.046;6.314;2023-04-07T03:53:21;101348.63;;;8.22;100.00
10852;BME280;5479;52.046;6.314;2023-04-07T03:55:50;101351.97;;;8.27;100.00
10852;BME280;5479;52.046;6.314;2023-04-07T03:58:18;101350.47;;;8.20;100.00
10852;BME280;5479;52.046;6.314;2023-04-07T04:00:47;101353.75;;;8.27;100.00
10852;BME280;5479;52.046;6.314;2023-04-07T04:03:15;101350.41;;;8.22;100.00
10852;BME280;5479;52.046;6.314;2023-04-07T04:05:43;101356.38;;;8.27;100.00
10852;BME280;5479;52.046;6.314;2023-04-07T04:08:11;101348.59;;;8.24;100.00
10852;BME280;5479;52.046;6.314;2023-04-07T04:10:39;101365.19;;;8.26;100.00
10852;BME280;5479;52.046;6.314;2023-04-07T04:13:07;101357.28;;;8.26;100.00
10852;BME280;5479;52.046;6.314;2023-04-07T04:15:35;101364.13;;;8.31;100.00
10852;BME280;5479;52.046;6.314;2023-04-07T04:18:05;101372.06;;;8.31;100.00
10852;BME280;5479;52.046;6.314;2023-04-07T04:20:33;101362.09;;;8.38;100.00
10852;BME280;5479;52.046;6.314;2023-04-07T04:23:01;101361.09;;;8.40;100.00
10852;BME280;5479;52.046;6.314;2023-04-07T04:25:29;101366.50;;;8.37;100.00
10852;BME280;5479;52.046;6.314;2023-04-07T04:27:57;101368.97;;;8.42;100.00
10852;BME280;5479;52.046;6.314;2023-04-07T04:30:25;101362.75;;;8.43;100.00
10852;BME280;5479;52.046;6.314;2023-04-07T04:32:53;101365.47;;;8.41;100.00
10852;BME280;5479;52.046;6.314;2023-04-07T04:35:22;101370.97;;;8.35;100.00
10852;BME280;5479;52.046;6.314;2023-04-07T04:37:51;101369.09;;;8.39;100.00
10852;BME280;5479;52.046;6.314;2023-04-07T04:40:19;101372.09;;;8.30;100.00
10852;BME280;5479;52.046;6.314;2023-04-07T04:42:48;101378.13;;;8.33;100.00
10852;BME280;5479;52.046;6.314;2023-04-07T04:45:16;101372.72;;;8.36;100.00
10852;BME280;5479;52.046;6.314;2023-04-07T04:47:44;101375.47;;;8.33;100.00
10852;BME280;5479;52.046;6.314;2023-04-07T04:50:12;101372.72;;;8.36;100.00
10852;BME280;5479;52.046;6.314;2023-04-07T04:52:42;101370.97;;;8.35;100.00
10852;BME280;5479;52.046;6.314;2023-04-07T04:55:10;101381.06;;;8.24;100.00
10852;BME280;5479;52.046;6.314;2023-04-07T04:57:38;101376.50;;;8.29;100.00
10852;BME280;5479;52.046;6.314;2023-04-07T05:00:07;101387.94;;;8.30;100.00
10852;BME280;5479;52.046;6.314;2023-04-07T05:02:35;101384.84;;;8.40;100.00
10852;BME280;5479;52.046;6.314;2023-04-07T05:05:04;101385.13;;;8.34;100.00
10852;BME280;5479;52.046;6.314;2023-04-07T05:07:32;101382.41;;;8.36;100.00
10852;BME280;5479;52.046;6.314;2023-04-07T05:10:01;101389.00;;;8.24;100.00
10852;BME280;5479;52.046;6.314;2023-04-07T05:12:30;101389.69;;;8.29;100.00
10852;BME280;5479;52.046;6.314;2023-04-07T05:14:58;101392.34;;;8.29;100.00
10852;BME280;5479;52.046;6.314;2023-04-07T05:17:26;101397.38;;;8.35;100.00
10852;BME280;5479;52.046;6.314;2023-04-07T05:19:54;101399.91;;;8.38;100.00
10852;BME280;5479;52.046;6.314;2023-04-07T05:22:22;101408.72;;;8.37;100.00
10852;BME280;5479;52.046;6.314;2023-04-07T05:24:50;101401.88;;;8.33;100.00
10852;BME280;5479;52.046;6.314;2023-04-07T05:27:19;101408.59;;;8.40;100.00
10852;BME280;5479;52.046;6.314;2023-04-07T05:29:47;101406.91;;;8.39;100.00
10852;BME280;5479;52.046;6.314;2023-04-07T05:32:14;101407.72;;;8.40;100.00
10852;BME280;5479;52.046;6.314;2023-04-07T05:34:42;101416.41;;;8.43;100.00
10852;BME280;5479;52.046;6.314;2023-04-07T05:37:10;101411.13;;;8.43;100.00
10852;BME280;5479;52.046;6.314;2023-04-07T05:39:38;101417.34;;;8.42;100.00
10852;BME280;5479;52.046;6.314;2023-04-07T05:42:06;101404.94;;;8.44;100.00
10852;BME280;5479;52.046;6.314;2023-04-07T05:44:35;101414.53;;;8.45;100.00
10852;BME280;5479;52.046;6.314;2023-04-07T05:47:03;101410.88;;;8.49;100.00
10852;BME280;5479;52.046;6.314;2023-04-07T05:49:34;101421.25;;;8.54;100.00
10852;BME280;5479;52.046;6.314;2023-04-07T05:52:02;101425.66;;;8.54;100.00
10852;BME280;5479;52.046;6.314;2023-04-07T05:54:31;101420.38;;;8.54;100.00
10852;BME280;5479;52.046;6.314;2023-04-07T05:56:59;101421.56;;;8.46;100.00
10852;BME280;5479;52.046;6.314;2023-04-07T05:59:27;101422.72;;;8.39;100.00
10852;BME280;5479;52.046;6.314;2023-04-07T06:01:56;101422.66;;;8.41;100.00
10852;BME280;5479;52.046;6.314;2023-04-07T06:04:24;101425.72;;;8.52;100.00
10852;BME280;5479;52.046;6.314;2023-04-07T06:06:52;101428.44;;;8.51;100.00
10852;BME280;5479;52.046;6.314;2023-04-07T06:09:21;101435.53;;;8.48;100.00
10852;BME280;5479;52.046;6.314;2023-04-07T06:11:48;101432.22;;;8.43;100.00
10852;BME280;5479;52.046;6.314;2023-04-07T06:14:16;101432.97;;;8.47;100.00
10852;BME280;5479;52.046;6.314;2023-04-07T06:16:44;101435.41;;;8.52;100.00
10852;BME280;5479;52.046;6.314;2023-04-07T06:19:14;101441.81;;;8.46;100.00
10852;BME280;5479;52.046;6.314;2023-04-07T06:21:41;101438.38;;;8.44;100.00
10852;BME280;5479;52.046;6.314;2023-04-07T06:24:09;101437.94;;;8.55;100.00
10852;BME280;5479;52.046;6.314;2023-04-07T06:26:38;101443.28;;;8.53;100.00
10852;BME280;5479;52.046;6.314;2023-04-07T06:29:07;101444.13;;;8.54;100.00
10852;BME280;5479;52.046;6.314;2023-04-07T06:31:35;101456.63;;;8.50;100.00
10852;BME280;5479;52.046;6.314;2023-04-07T06:34:03;101455.38;;;8.59;100.00
10852;BME280;5479;52.046;6.314;2023-04-07T06:36:32;101455.44;;;8.57;100.00
10852;BME280;5479;52.046;6.314;2023-04-07T06:39:01;101452.91;;;8.54;100.00
10852;BME280;5479;52.046;6.314;2023-04-07T06:41:29;101459.84;;;8.57;100.00
10852;BME280;5479;52.046;6.314;2023-04-07T06:43:59;101453.97;;;8.50;100.00
10852;BME280;5479;52.046;6.314;2023-04-07T06:46:27;101456.06;;;8.64;100.00
10852;BME280;5479;52.046;6.314;2023-04-07T06:48:55;101459.84;;;8.57;100.00
10852;BME280;5479;52.046;6.314;2023-04-07T06:51:23;101463.44;;;8.56;100.00
10852;BME280;5479;52.046;6.314;2023-04-07T06:53:53;101463.66;;;8.49;100.00
10852;BME280;5479;52.046;6.314;2023-04-07T06:56:22;101470.53;;;8.54;100.00
10852;BME280;5479;52.046;6.314;2023-04-07T06:58:50;101479.16;;;8.59;100.00
10852;BME280;5479;52.046;6.314;2023-04-07T07:01:17;101475.22;;;8.69;100.00
10852;BME280;5479;52.046;6.314;2023-04-07T07:03:45;101476.91;;;8.70;100.00
10852;BME280;5479;52.046;6.314;2023-04-07T07:06:13;101476.91;;;8.70;100.00
10852;BME280;5479;52.046;6.314;2023-04-07T07:08:41;101478.75;;;8.68;100.00
10852;BME280;5479;52.046;6.314;2023-04-07T07:11:10;101474.88;;;8.76;100.00
10852;BME280;5479;52.046;6.314;2023-04-07T07:13:38;101479.97;;;8.81;100.00
10852;BME280;5479;52.046;6.314;2023-04-07T07:16:06;101488.66;;;8.63;100.00
10852;BME280;5479;52.046;6.314;2023-04-07T07:18:34;101488.13;;;8.75;100.00
10852;BME280;5479;52.046;6.314;2023-04-07T07:21:03;101487.00;;;8.82;100.00
10852;BME280;5479;52.046;6.314;2023-04-07T07:23:31;101488.69;;;8.83;100.00
10852;BME280;5479;52.046;6.314;2023-04-07T07:25:59;101499.25;;;8.83;100.00
10852;BME280;5479;52.046;6.314;2023-04-07T07:28:28;101493.59;;;8.92;100.00
10852;BME280;5479;52.046;6.314;2023-04-07T07:30:56;101486.00;;;8.84;100.00
10852;BME280;5479;52.046;6.314;2023-04-07T07:33:25;101492.03;;;8.88;100.00
10852;BME280;5479;52.046;6.314;2023-04-07T07:35:52;101491.75;;;8.94;100.00
10852;BME280;5479;52.046;6.314;2023-04-07T07:38:21;101493.59;;;8.92;100.00
10852;BME280;5479;52.046;6.314;2023-04-07T07:40:48;101501.47;;;8.93;100.00
10852;BME280;5479;52.046;6.314;2023-04-07T07:43:17;101505.78;;;8.96;100.00
10852;BME280;5479;52.046;6.314;2023-04-07T07:45:46;101507.72;;;8.91;100.00
10852;BME280;5479;52.046;6.314;2023-04-07T07:48:14;101497.78;;;8.97;100.00
10852;BME280;5479;52.046;6.314;2023-04-07T07:50:42;101508.09;;;9.03;100.00
10852;BME280;5479;52.046;6.314;2023-04-07T07:53:11;101508.66;;;8.90;100.00
10852;BME280;5479;52.046;6.314;2023-04-07T07:55:39;101509.78;;;9.04;100.00
10852;BME280;5479;52.046;6.314;2023-04-07T07:58:07;101513.19;;;9.08;100.00
10852;BME280;5479;52.046;6.314;2023-04-07T08:00:35;101519.69;;;8.99;100.00
10852;BME280;5479;52.046;6.314;2023-04-07T08:03:05;101514.53;;;8.96;100.00
10852;BME280;5479;52.046;6.314;2023-04-07T08:05:32;101520.94;;;8.91;100.00
10852;BME280;5479;52.046;6.314;2023-04-07T08:08:01;101519.03;;;8.94;100.00
10852;BME280;5479;52.046;6.314;2023-04-07T08:10:28;101526.72;;;9.00;100.00
10852;BME280;5479;52.046;6.314;2023-04-07T08:12:56;101536.59;;;9.17;100.00
10852;BME280;5479;52.046;6.314;2023-04-07T08:15:24;101529.44;;;9.19;100.00
10852;BME280;5479;52.046;6.314;2023-04-07T08:17:52;101541.22;;;9.12;100.00
10852;BME280;5479;52.046;6.314;2023-04-07T08:20:21;101531.31;;;9.17;100.00
10852;BME280;5479;52.046;6.314;2023-04-07T08:22:49;101534.97;;;9.13;100.00
10852;BME280;5479;52.046;6.314;2023-04-07T08:25:17;101540.38;;;9.10;100.00
10852;BME280;5479;52.046;6.314;2023-04-07T08:27:46;101538.03;;;9.24;100.00
10852;BME280;5479;52.046;6.314;2023-04-07T08:30:14;101539.91;;;9.42;100.00
10852;BME280;5479;52.046;6.314;2023-04-07T08:32:43;101543.34;;;9.64;100.00
10852;BME280;5479;52.046;6.314;2023-04-07T08:35:11;101546.84;;;9.65;100.00
10852;BME280;5479;52.046;6.314;2023-04-07T08:37:41;101547.38;;;9.73;100.00
10852;BME280;5479;52.046;6.314;2023-04-07T08:40:10;101546.38;;;9.76;100.00
10852;BME280;5479;52.046;6.314;2023-04-07T08:42:41;101551.81;;;9.73;100.00
10852;BME280;5479;52.046;6.314;2023-04-07T08:45:09;101552.78;;;9.70;100.00
10852;BME280;5479;52.046;6.314;2023-04-07T08:47:39;101556.53;;;9.44;100.00
10852;BME280;5479;52.046;6.314;2023-04-07T08:50:09;101562.00;;;9.41;100.00
10852;BME280;5479;52.046;6.314;2023-04-07T08:52:43;101563.09;;;9.36;100.00
10852;BME280;5479;52.046;6.314;2023-04-07T08:55:12;101568.38;;;9.36;100.00
10852;BME280;5479;52.046;6.314;2023-04-07T08:57:40;101565.41;;;9.43;100.00
10852;BME280;5479;52.046;6.314;2023-04-07T09:00:09;101568.75;;;9.27;100.00
10852;BME280;5479;52.046;6.314;2023-04-07T09:02:40;101570.66;;;9.23;100.00
10852;BME280;5479;52.046;6.314;2023-04-07T09:05:09;101577.84;;;9.41;100.00
10852;BME280;5479;52.046;6.314;2023-04-07T09:07:38;101570.59;;;9.46;100.00
10852;BME280;5479;52.046;6.314;2023-04-07T09:10:08;101574.66;;;9.53;100.00
10852;BME280;5479;52.046;6.314;2023-04-07T09:12:37;101571.38;;;9.48;100.00
10852;BME280;5479;52.046;6.314;2023-04-07T09:15:06;101572.56;;;9.41;100.00
10852;BME280;5479;52.046;6.314;2023-04-07T09:17:35;101582.84;;;9.47;100.00
10852;BME280;5479;52.046;6.314;2023-04-07T09:20:03;101583.38;;;9.55;100.00
10852;BME280;5479;52.046;6.314;2023-04-07T09:22:35;101584.22;;;9.57;100.00
10852;BME280;5479;52.046;6.314;2023-04-07T09:25:16;101590.81;;;9.67;100.00
10852;BME280;5479;52.046;6.314;2023-04-07T09:27:57;101593.19;;;9.53;100.00
10852;BME280;5479;52.046;6.314;2023-04-07T09:30:26;101590.94;;;9.64;100.00
10852;BME280;5479;52.046;6.314;2023-04-07T09:32:55;101580.03;;;9.52;100.00
10852;BME280;5479;52.046;6.314;2023-04-07T09:35:23;101584.91;;;9.61;100.00
10852;BME280;5479;52.046;6.314;2023-04-07T09:38:03;101583.59;;;9.71;100.00
10852;BME280;5479;52.046;6.314;2023-04-07T09:40:33;101590.34;;;9.78;100.00
10852;BME280;5479;52.046;6.314;2023-04-07T09:43:03;101591.09;;;9.82;100.00
10852;BME280;5479;52.046;6.314;2023-04-07T09:45:31;101588.03;;;9.91;100.00
10852;BME280;5479;52.046;6.314;2023-04-07T09:48:04;101595.56;;;10.00;100.00
10852;BME280;5479;52.046;6.314;2023-04-07T09:50:34;101591.75;;;9.87;100.00
10852;BME280;5479;52.046;6.314;2023-04-07T09:53:02;101598.47;;;9.94;100.00
10852;BME280;5479;52.046;6.314;2023-04-07T09:55:32;101599.72;;;9.85;100.00
10852;BME280;5479;52.046;6.314;2023-04-07T09:58:02;101602.84;;;9.95;100.00
10852;BME280;5479;52.046;6.314;2023-04-07T10:00:30;101600.13;;;9.96;100.00
10852;BME280;5479;52.046;6.314;2023-04-07T10:02:59;101597.16;;;10.24;100.00
10852;BME280;5479;52.046;6.314;2023-04-07T10:05:27;101598.94;;;10.23;100.00
10852;BME280;5479;52.046;6.314;2023-04-07T10:07:55;101592.38;;;10.32;100.00
10852;BME280;5479;52.046;6.314;2023-04-07T10:10:24;101596.81;;;10.50;100.00
10852;BME280;5479;52.046;6.314;2023-04-07T10:12:55;101599.19;;;10.38;100.00
10852;BME280;5479;52.046;6.314;2023-04-07T10:15:25;101596.69;;;10.53;100.00
10852;BME280;5479;52.046;6.314;2023-04-07T10:17:54;101591.44;;;10.70;100.00
10852;BME280;5479;52.046;6.314;2023-04-07T10:20:22;101597.97;;;10.63;100.00
10852;BME280;5479;52.046;6.314;2023-04-07T10:22:51;101593.38;;;10.85;100.00
10852;BME280;5479;52.046;6.314;2023-04-07T10:25:23;101595.81;;;11.60;100.00
10852;BME280;5479;52.046;6.314;2023-04-07T10:27:55;101596.59;;;11.96;100.00
10852;BME280;5479;52.046;6.314;2023-04-07T10:30:28;101604.91;;;11.90;100.00
10852;BME280;5479;52.046;6.314;2023-04-07T10:32:57;101607.56;;;11.73;100.00
10852;BME280;5479;52.046;6.314;2023-04-07T10:35:25;101610.81;;;11.44;100.00
10852;BME280;5479;52.046;6.314;2023-04-07T10:38:10;101612.69;;;11.42;100.00
10852;BME280;5479;52.046;6.314;2023-04-07T10:40:40;101621.06;;;10.97;100.00
10852;BME280;5479;52.046;6.314;2023-04-07T10:43:08;101625.38;;;10.62;100.00
10852;BME280;5479;52.046;6.314;2023-04-07T10:45:56;101616.84;;;10.37;100.00
10852;BME280;5479;52.046;6.314;2023-04-07T10:48:26;101617.06;;;10.33;100.00
10852;BME280;5479;52.046;6.314;2023-04-07T10:51:13;101616.34;;;10.29;100.00
10852;BME280;5479;52.046;6.314;2023-04-07T10:57:13;101615.25;;;11.08;100.00
10852;BME280;5479;52.046;6.314;2023-04-07T11:00:16;101619.38;;;11.49;100.00
10852;BME280;5479;52.046;6.314;2023-04-07T11:02:45;101618.66;;;11.45;100.00
10852;BME280;5479;52.046;6.314;2023-04-07T11:05:21;101618.69;;;11.63;100.00
10852;BME280;5479;52.046;6.314;2023-04-07T11:07:52;101619.63;;;12.13;100.00
10852;BME280;5479;52.046;6.314;2023-04-07T11:10:28;101620.41;;;12.48;100.00
10852;BME280;5479;52.046;6.314;2023-04-07T11:13:04;101617.75;;;12.63;100.00
10852;BME280;5479;52.046;6.314;2023-04-07T11:15:34;101625.84;;;12.78;100.00
10852;BME280;5479;52.046;6.314;2023-04-07T11:18:21;101622.25;;;12.94;100.00
10852;BME280;5479;52.046;6.314;2023-04-07T11:20:51;101628.28;;;13.13;100.00
10852;BME280;5479;52.046;6.314;2023-04-07T11:23:21;101634.88;;;12.58;100.00
10852;BME280;5479;52.046;6.314;2023-04-07T11:25:52;101637.31;;;12.62;100.00
10852;BME280;5479;52.046;6.314;2023-04-07T11:28:26;101636.97;;;12.03;100.00
10852;BME280;5479;52.046;6.314;2023-04-07T11:30:55;101631.34;;;12.09;100.00
10852;BME280;5479;52.046;6.314;2023-04-07T11:33:27;101633.94;;;11.76;100.00
10852;BME280;5479;52.046;6.314;2023-04-07T11:35:57;101644.00;;;10.98;100.00
10852;BME280;5479;52.046;6.314;2023-04-07T11:38:28;101646.56;;;11.00;100.00
10852;BME280;5479;52.046;6.314;2023-04-07T11:41:09;101650.06;;;10.81;100.00
10852;BME280;5479;52.046;6.314;2023-04-07T11:43:38;101651.34;;;10.73;100.00
10852;BME280;5479;52.046;6.314;2023-04-07T11:46:10;101654.44;;;10.45;100.00
10852;BME280;5479;52.046;6.314;2023-04-07T11:48:41;101663.47;;;10.21;100.00
10852;BME280;5479;52.046;6.314;2023-04-07T11:51:18;101655.59;;;10.38;100.00
10852;BME280;5479;52.046;6.314;2023-04-07T11:53:47;101657.38;;;10.19;100.00
10852;BME280;5479;52.046;6.314;2023-04-07T11:56:21;101658.34;;;10.37;100.00
10852;BME280;5479;52.046;6.314;2023-04-07T11:58:51;101655.13;;;10.49;100.00
10852;BME280;5479;52.046;6.314;2023-04-07T12:01:19;101662.81;;;10.16;100.00
10852;BME280;5479;52.046;6.314;2023-04-07T12:03:56;101665.03;;;10.05;100.00
10852;BME280;5479;52.046;6.314;2023-04-07T12:06:26;101664.31;;;10.21;100.00
10852;BME280;5479;52.046;6.314;2023-04-07T12:08:56;101669.19;;;10.30;100.00
10852;BME280;5479;52.046;6.314;2023-04-07T12:11:24;101667.97;;;10.19;100.00
10852;BME280;5479;52.046;6.314;2023-04-07T12:13:53;101671.16;;;10.27;100.00
10852;BME280;5479;52.046;6.314;2023-04-07T12:16:22;101672.72;;;10.31;100.00
10852;BME280;5479;52.046;6.314;2023-04-07T12:18:53;101675.84;;;10.20;100.00
10852;BME280;5479;52.046;6.314;2023-04-07T12:21:22;101676.75;;;10.40;100.00
10852;BME280;5479;52.046;6.314;2023-04-07T12:23:54;101677.19;;;10.49;100.00
10852;BME280;5479;52.046;6.314;2023-04-07T12:26:42;101682.91;;;10.40;100.00
10852;BME280;5479;52.046;6.314;2023-04-07T12:29:10;101683.91;;;10.38;100.00
10852;BME280;5479;52.046;6.314;2023-04-07T12:31:39;101684.94;;;10.34;100.00
10852;BME280;5479;52.046;6.314;2023-04-07T12:34:09;101692.72;;;10.18;100.00
10852;BME280;5479;52.046;6.314;2023-04-07T12:36:51;101701.19;;;10.26;100.00
10852;BME280;5479;52.046;6.314;2023-04-07T12:39:33;101693.22;;;10.26;100.00
10852;BME280;5479;52.046;6.314;2023-04-07T12:42:01;101698.72;;;10.42;100.00
10852;BME280;5479;52.046;6.314;2023-04-07T12:44:30;101700.78;;;10.35;100.00
10852;BME280;5479;52.046;6.314;2023-04-07T12:46:58;101706.53;;;10.45;100.00
10852;BME280;5479;52.046;6.314;2023-04-07T12:49:26;101695.38;;;10.57;100.00
10852;BME280;5479;52.046;6.314;2023-04-07T12:51:55;101706.25;;;10.51;100.00
10852;BME280;5479;52.046;6.314;2023-04-07T12:54:23;101706.28;;;10.69;100.00
10852;BME280;5479;52.046;6.314;2023-04-07T12:56:52;101706.03;;;10.55;100.00
10852;BME280;5479;52.046;6.314;2023-04-07T12:59:20;101716.13;;;10.47;100.00
10852;BME280;5479;52.046;6.314;2023-04-07T13:01:47;101715.19;;;10.28;100.00
10852;BME280;5479;52.046;6.314;2023-04-07T13:04:15;101713.34;;;10.30;100.00
10852;BME280;5479;52.046;6.314;2023-04-07T13:06:44;101710.34;;;9.97;100.00
10852;BME280;5479;52.046;6.314;2023-04-07T13:09:13;101714.78;;;9.75;100.00
10852;BME280;5479;52.046;6.314;2023-04-07T13:11:41;101716.53;;;9.54;100.00
10852;BME280;5479;52.046;6.314;2023-04-07T13:14:09;101727.34;;;9.48;100.00